createdAt,value
2022-12-28T00:01:22.920Z,100.00
2022-12-28T00:03:50.117Z,100.00
2022-12-28T00:06:17.783Z,100.00
2022-12-28T00:08:45.038Z,100.00
2022-12-28T00:11:20.390Z,100.00
2022-12-28T00:13:54.390Z,100.00
2022-12-28T00:16:24.838Z,100.00
2022-12-28T00:18:51.364Z,100.00
2022-12-28T00:21:17.978Z,100.00
2022-12-28T00:23:44.455Z,100.00
2022-12-28T00:26:13.971Z,100.00
2022-12-28T00:28:40.808Z,100.00
2022-12-28T00:31:07.328Z,100.00
2022-12-28T00:33:33.952Z,100.00
2022-12-28T00:36:01.633Z,100.00
2022-12-28T00:38:31.610Z,100.00
2022-12-28T00:40:59.067Z,100.00
2022-12-28T00:43:26.186Z,100.00
2022-12-28T00:45:52.740Z,100.00
2022-12-28T00:48:19.533Z,100.00
2022-12-28T00:50:46.201Z,100.00
2022-12-28T00:53:13.083Z,100.00
2022-12-28T00:55:39.792Z,100.00
2022-12-28T00:58:07.160Z,100.00
2022-12-28T01:00:34.987Z,100.00
2022-12-28T01:03:01.592Z,100.00
2022-12-28T01:05:28.047Z,100.00
2022-12-28T01:07:54.434Z,100.00
2022-12-28T01:10:20.891Z,100.00
2022-12-28T01:12:47.317Z,100.00
2022-12-28T01:15:13.897Z,99.88
2022-12-28T01:17:40.641Z,99.59
2022-12-28T01:20:07.564Z,99.79
2022-12-28T01:22:34.109Z,100.00
2022-12-28T01:25:00.565Z,100.00
2022-12-28T01:27:26.952Z,100.00
2022-12-28T01:29:53.418Z,100.00
2022-12-28T01:32:19.875Z,100.00
2022-12-28T01:34:46.288Z,99.95
2022-12-28T01:37:12.690Z,99.44
2022-12-28T01:39:39.211Z,98.36
2022-12-28T01:42:05.673Z,98.25
2022-12-28T01:44:42.747Z,98.16
2022-12-28T01:47:16.663Z,97.70
2022-12-28T01:49:48.730Z,98.21
2022-12-28T01:52:39.041Z,98.05
2022-12-28T01:55:15.476Z,97.20
2022-12-28T01:57:56.397Z,98.74
2022-12-28T02:00:22.915Z,98.42
2022-12-28T02:02:58.105Z,98.45
2022-12-28T02:05:31.404Z,97.72
2022-12-28T02:08:05.966Z,96.71
2022-12-28T02:10:44.188Z,97.36
2022-12-28T02:13:17.249Z,98.02
2022-12-28T02:15:45.243Z,97.61
2022-12-28T02:18:13.482Z,98.21
2022-12-28T02:20:54.249Z,98.68
2022-12-28T02:23:42.330Z,99.29
2022-12-28T02:26:31.487Z,97.44
2022-12-28T02:29:18.531Z,97.11
2022-12-28T02:32:03.796Z,97.91
2022-12-28T02:35:03.031Z,97.18
2022-12-28T02:37:52.825Z,99.36
2022-12-28T02:40:26.443Z,97.66
2022-12-28T02:42:54.688Z,97.38
2022-12-28T02:45:55.316Z,96.65
2022-12-28T02:48:41.125Z,97.83
2022-12-28T02:51:39.519Z,98.43
2022-12-28T02:55:03.389Z,97.86
2022-12-28T02:58:01.040Z,97.69
2022-12-28T03:00:44.860Z,98.24
2022-12-28T03:03:21.207Z,98.42
2022-12-28T03:06:24.313Z,96.92
2022-12-28T03:09:19.982Z,98.94
2022-12-28T03:11:55.333Z,98.65
2022-12-28T03:14:30.599Z,97.90
2022-12-28T03:17:19.347Z,97.60
2022-12-28T03:20:09.743Z,98.83
2022-12-28T03:22:56.875Z,97.65
2022-12-28T03:25:45.999Z,97.79
2022-12-28T03:28:35.398Z,97.75
2022-12-28T03:31:08.972Z,97.96
2022-12-28T03:33:41.000Z,98.74
2022-12-28T03:36:18.066Z,98.47
2022-12-28T03:39:00.483Z,98.70
2022-12-28T03:41:34.656Z,98.26
2022-12-28T03:44:10.380Z,97.89
2022-12-28T03:46:47.412Z,98.41
2022-12-28T03:49:14.269Z,97.13
2022-12-28T03:51:42.478Z,96.86
2022-12-28T03:54:08.913Z,95.16
2022-12-28T03:56:45.908Z,95.68
2022-12-28T03:59:12.355Z,95.36
2022-12-28T04:01:38.858Z,97.23
2022-12-28T04:04:05.228Z,95.97
2022-12-28T04:06:31.667Z,96.66
2022-12-28T04:08:58.114Z,97.05
2022-12-28T04:11:24.556Z,97.46
2022-12-28T04:13:50.933Z,97.72
2022-12-28T04:16:17.336Z,98.78
2022-12-28T04:18:43.987Z,97.03
2022-12-28T04:21:11.808Z,97.17
2022-12-28T04:23:38.259Z,97.54
2022-12-28T04:26:07.991Z,98.12
2022-12-28T04:28:35.311Z,96.97
2022-12-28T04:31:02.866Z,97.18
2022-12-28T04:33:33.121Z,96.09
2022-12-28T04:36:12.597Z,96.25
2022-12-28T04:38:39.053Z,97.05
2022-12-28T04:41:06.812Z,95.91
2022-12-28T04:43:34.131Z,95.88
2022-12-28T04:46:03.928Z,94.75
2022-12-28T04:48:30.357Z,95.40
2022-12-28T04:50:57.333Z,95.93
2022-12-28T04:53:24.570Z,96.48
2022-12-28T04:55:50.993Z,96.58
2022-12-28T04:58:17.599Z,96.24
2022-12-28T05:00:44.065Z,96.53
2022-12-28T05:03:10.519Z,97.75
2022-12-28T05:05:38.022Z,95.74
2022-12-28T05:08:04.466Z,97.96
2022-12-28T05:10:30.927Z,96.24
2022-12-28T05:12:57.370Z,96.36
2022-12-28T05:15:23.810Z,96.18
2022-12-28T05:17:50.603Z,95.81
2022-12-28T05:20:20.110Z,95.55
2022-12-28T05:22:46.811Z,95.55
2022-12-28T05:25:13.161Z,96.76
2022-12-28T05:27:39.567Z,96.09
2022-12-28T05:30:06.744Z,95.89
2022-12-28T05:32:33.215Z,96.04
2022-12-28T05:34:59.655Z,95.35
2022-12-28T05:37:26.053Z,96.55
2022-12-28T05:39:52.508Z,94.61
2022-12-28T05:42:19.115Z,95.38
2022-12-28T05:44:45.434Z,95.12
2022-12-28T05:47:13.762Z,96.20
2022-12-28T05:49:40.203Z,96.90
2022-12-28T05:52:06.623Z,95.89
2022-12-28T05:54:33.051Z,95.02
2022-12-28T05:56:59.634Z,95.13
2022-12-28T05:59:26.070Z,94.46
2022-12-28T06:01:52.597Z,96.12
2022-12-28T06:04:20.025Z,96.18
2022-12-28T06:06:47.567Z,94.76
2022-12-28T06:09:14.182Z,93.83
2022-12-28T06:11:41.107Z,94.53
2022-12-28T06:14:07.595Z,94.11
2022-12-28T06:16:41.005Z,94.29
2022-12-28T06:19:09.561Z,93.39
2022-12-28T06:21:38.532Z,92.85
2022-12-28T06:24:06.296Z,92.72
2022-12-28T06:26:35.036Z,92.51
2022-12-28T06:29:04.346Z,92.97
2022-12-28T06:31:34.215Z,92.48
2022-12-28T06:34:02.203Z,93.33
2022-12-28T06:36:35.426Z,94.20
2022-12-28T06:39:03.698Z,93.72
2022-12-28T06:41:30.135Z,93.61
2022-12-28T06:43:57.798Z,94.21
2022-12-28T06:46:26.489Z,94.07
2022-12-28T06:48:53.484Z,96.50
2022-12-28T06:51:23.052Z,96.69
2022-12-28T06:53:51.227Z,97.49
2022-12-28T06:56:20.385Z,98.13
2022-12-28T06:58:48.233Z,100.00
2022-12-28T07:01:18.057Z,98.78
2022-12-28T07:03:46.042Z,100.00
2022-12-28T07:06:15.717Z,100.00
2022-12-28T07:08:42.743Z,99.80
2022-12-28T07:11:12.406Z,99.70
2022-12-28T07:13:39.003Z,100.00
2022-12-28T07:16:11.649Z,100.00
2022-12-28T07:18:38.311Z,99.91
2022-12-28T07:21:06.068Z,100.00
2022-12-28T07:23:33.738Z,100.00
2022-12-28T07:26:13.714Z,100.00
2022-12-28T07:28:43.333Z,100.00
2022-12-28T07:31:16.969Z,100.00
2022-12-28T07:33:44.562Z,100.00
2022-12-28T07:36:13.888Z,100.00
2022-12-28T07:38:40.908Z,100.00
2022-12-28T07:41:10.411Z,100.00
2022-12-28T07:43:37.510Z,100.00
2022-12-28T07:46:11.659Z,100.00
2022-12-28T07:48:38.737Z,100.00
2022-12-28T07:51:12.310Z,100.00
2022-12-28T07:53:40.305Z,100.00
2022-12-28T07:56:07.534Z,100.00
2022-12-28T07:58:34.222Z,100.00
2022-12-28T08:01:05.081Z,100.00
2022-12-28T08:03:33.265Z,100.00
2022-12-28T08:06:09.942Z,100.00
2022-12-28T08:08:48.195Z,100.00
2022-12-28T08:11:20.125Z,100.00
2022-12-28T08:14:26.732Z,100.00
2022-12-28T08:16:53.370Z,100.00
2022-12-28T08:19:25.497Z,100.00
2022-12-28T08:21:52.382Z,100.00
2022-12-28T08:28:03.592Z,100.00
2022-12-28T08:30:44.441Z,100.00
2022-12-28T08:33:13.377Z,100.00
2022-12-28T08:35:43.399Z,100.00
2022-12-28T08:38:10.517Z,100.00
2022-12-28T08:40:41.480Z,100.00
2022-12-28T08:43:31.853Z,100.00
2022-12-28T08:46:17.358Z,100.00
2022-12-28T08:48:45.437Z,100.00
2022-12-28T08:51:22.816Z,100.00
2022-12-28T08:53:50.030Z,100.00
2022-12-28T08:56:21.398Z,100.00
2022-12-28T08:58:48.534Z,100.00
2022-12-28T09:01:18.070Z,100.00
2022-12-28T09:03:47.472Z,100.00
2022-12-28T09:06:18.239Z,100.00
2022-12-28T09:09:04.455Z,100.00
2022-12-28T09:11:31.661Z,100.00
2022-12-28T09:13:58.078Z,100.00
2022-12-28T09:16:27.715Z,100.00
2022-12-28T09:18:56.246Z,100.00
2022-12-28T09:21:24.711Z,100.00
2022-12-28T09:23:51.363Z,100.00
2022-12-28T09:26:22.748Z,100.00
2022-12-28T09:28:51.305Z,100.00
2022-12-28T09:31:19.470Z,100.00
2022-12-28T09:36:48.781Z,100.00
2022-12-28T09:39:17.488Z,100.00
2022-12-28T09:42:01.496Z,100.00
2022-12-28T09:44:34.443Z,100.00
2022-12-28T09:47:24.091Z,100.00
2022-12-28T09:49:58.531Z,100.00
2022-12-28T09:52:39.921Z,100.00
2022-12-28T09:55:18.062Z,100.00
2022-12-28T09:57:56.844Z,100.00
2022-12-28T10:00:43.913Z,100.00
2022-12-28T10:03:22.895Z,100.00
2022-12-28T10:06:00.899Z,100.00
2022-12-28T10:08:49.742Z,100.00
2022-12-28T10:11:53.271Z,100.00
2022-12-28T10:14:36.155Z,100.00
2022-12-28T10:17:05.498Z,100.00
2022-12-28T10:19:34.289Z,100.00
2022-12-28T10:22:29.172Z,100.00
2022-12-28T10:24:59.155Z,100.00
2022-12-28T10:27:40.164Z,100.00
2022-12-28T10:34:57.246Z,100.00
2022-12-28T10:37:39.136Z,100.00
2022-12-28T10:40:30.082Z,100.00
2022-12-28T10:42:59.226Z,100.00
2022-12-28T10:46:04.809Z,100.00
2022-12-28T10:48:47.915Z,100.00
2022-12-28T10:51:18.220Z,100.00
2022-12-28T10:53:46.204Z,100.00
2022-12-28T10:56:28.140Z,100.00
2022-12-28T10:59:13.007Z,100.00
2022-12-28T11:01:42.087Z,100.00
2022-12-28T11:04:26.046Z,100.00
2022-12-28T11:07:26.051Z,100.00
2022-12-28T11:13:07.513Z,100.00
2022-12-28T11:15:34.284Z,100.00
2022-12-28T11:18:06.722Z,100.00
2022-12-28T11:21:16.875Z,100.00
2022-12-28T11:24:25.309Z,100.00
2022-12-28T11:26:54.090Z,100.00
2022-12-28T11:29:27.944Z,100.00
2022-12-28T11:32:31.132Z,100.00
2022-12-28T11:34:58.708Z,100.00
2022-12-28T11:37:42.577Z,100.00
2022-12-28T11:40:37.103Z,100.00
2022-12-28T11:43:03.745Z,100.00
2022-12-28T11:46:00.552Z,100.00
2022-12-28T11:48:48.217Z,100.00
2022-12-28T11:51:21.943Z,100.00
2022-12-28T11:54:02.624Z,100.00
2022-12-28T11:56:44.340Z,100.00
2022-12-28T11:59:31.903Z,100.00
2022-12-28T12:02:19.715Z,100.00
2022-12-28T12:04:47.872Z,100.00
2022-12-28T12:07:26.037Z,100.00
2022-12-28T12:10:31.075Z,100.00
2022-12-28T12:12:58.214Z,100.00
2022-12-28T12:15:32.610Z,100.00
2022-12-28T12:18:10.040Z,100.00
2022-12-28T12:20:39.585Z,99.47
2022-12-28T12:23:09.669Z,100.00
2022-12-28T12:25:42.594Z,100.00
2022-12-28T12:28:27.007Z,100.00
2022-12-28T12:30:55.333Z,99.37
2022-12-28T12:33:30.471Z,99.97
2022-12-28T12:36:23.421Z,99.35
2022-12-28T12:39:31.159Z,97.66
2022-12-28T12:42:08.241Z,99.60
2022-12-28T12:44:53.792Z,97.85
2022-12-28T12:47:40.978Z,98.51
2022-12-28T12:50:14.513Z,98.27
2022-12-28T12:52:42.971Z,98.19
2022-12-28T12:55:45.227Z,98.45
2022-12-28T12:58:30.588Z,98.36
2022-12-28T13:01:19.150Z,97.24
2022-12-28T13:03:49.970Z,97.11
2022-12-28T13:06:20.091Z,97.43
2022-12-28T13:08:54.520Z,97.12
2022-12-28T13:11:21.650Z,94.95
2022-12-28T13:13:51.142Z,95.76
2022-12-28T13:16:24.181Z,95.79
2022-12-28T13:19:05.112Z,96.95
2022-12-28T13:21:46.065Z,97.46
2022-12-28T13:24:29.983Z,96.56
2022-12-28T13:26:59.849Z,97.26
2022-12-28T13:29:31.600Z,97.36
2022-12-28T13:31:58.465Z,96.87
2022-12-28T13:34:27.704Z,96.59
2022-12-28T13:36:56.782Z,94.97
2022-12-28T13:39:25.023Z,96.39
2022-12-28T13:41:54.113Z,93.59
2022-12-28T13:44:33.565Z,96.92
2022-12-28T13:47:05.782Z,95.81
2022-12-28T13:49:38.768Z,95.43
2022-12-28T13:52:13.642Z,97.19
2022-12-28T13:54:43.880Z,98.02
2022-12-28T13:57:45.399Z,97.48
2022-12-28T14:00:01.832Z,97.72
2022-12-28T14:02:28.933Z,98.00
2022-12-28T14:04:56.076Z,97.44
2022-12-28T14:07:28.870Z,98.08
2022-12-28T14:09:57.082Z,98.93
2022-12-28T14:12:24.448Z,98.80
2022-12-28T14:14:51.877Z,96.19
2022-12-28T14:17:19.715Z,94.72
2022-12-28T14:19:46.419Z,95.79
2022-12-28T14:22:45.148Z,97.28
2022-12-28T14:25:13.367Z,98.12
2022-12-28T14:28:01.413Z,97.14
2022-12-28T14:30:36.886Z,97.85
2022-12-28T14:33:22.334Z,98.50
2022-12-28T14:35:56.942Z,98.75
2022-12-28T14:38:29.835Z,99.09
2022-12-28T14:40:59.468Z,98.50
2022-12-28T14:43:34.540Z,99.86
2022-12-28T14:46:34.818Z,100.00
2022-12-28T14:49:29.970Z,100.00
2022-12-28T14:52:17.927Z,100.00
2022-12-28T14:54:46.832Z,100.00
2022-12-28T14:57:34.180Z,100.00
2022-12-28T15:00:07.736Z,100.00
2022-12-28T15:02:34.251Z,100.00
2022-12-28T15:05:02.430Z,99.69
2022-12-28T15:07:31.743Z,100.00
2022-12-28T15:10:01.302Z,100.00
2022-12-28T15:12:30.800Z,100.00
2022-12-28T15:14:57.280Z,100.00
2022-12-28T15:17:26.859Z,100.00
2022-12-28T15:19:58.052Z,100.00
2022-12-28T15:22:24.529Z,100.00
2022-12-28T15:24:50.960Z,100.00
2022-12-28T15:27:17.368Z,100.00
2022-12-28T15:32:30.173Z,100.00
2022-12-28T15:34:56.610Z,100.00
2022-12-28T15:37:23.065Z,100.00
2022-12-28T15:39:51.894Z,100.00
2022-12-28T15:42:18.345Z,100.00
2022-12-28T15:44:46.324Z,100.00
2022-12-28T15:47:12.894Z,100.00
2022-12-28T15:49:39.375Z,100.00
2022-12-28T15:52:05.786Z,100.00
2022-12-28T15:54:32.209Z,100.00
2022-12-28T15:56:58.650Z,100.00
2022-12-28T15:59:25.157Z,100.00
2022-12-28T16:01:51.830Z,100.00
2022-12-28T16:04:18.523Z,100.00
2022-12-28T16:06:45.493Z,100.00
2022-12-28T16:09:13.531Z,100.00
2022-12-28T16:11:40.945Z,100.00
2022-12-28T16:14:11.902Z,100.00
2022-12-28T16:16:39.288Z,100.00
2022-12-28T16:19:10.063Z,100.00
2022-12-28T16:21:36.524Z,100.00
2022-12-28T16:24:03.197Z,100.00
2022-12-28T16:26:29.607Z,100.00
2022-12-28T16:28:56.385Z,100.00
2022-12-28T16:31:25.784Z,100.00
2022-12-28T16:33:57.919Z,100.00
2022-12-28T16:36:25.343Z,100.00
2022-12-28T16:38:52.466Z,100.00
2022-12-28T16:41:19.403Z,100.00
2022-12-28T16:43:46.761Z,98.71
2022-12-28T16:46:13.432Z,97.61
2022-12-28T16:48:40.229Z,99.08
2022-12-28T16:51:07.191Z,97.58
2022-12-28T16:53:34.321Z,98.55
2022-12-28T16:56:01.868Z,97.54
2022-12-28T16:58:29.542Z,98.82
2022-12-28T17:00:56.866Z,97.56
2022-12-28T17:03:23.910Z,97.89
2022-12-28T17:05:52.538Z,97.04
2022-12-28T17:08:21.527Z,97.42
2022-12-28T17:10:47.945Z,97.60
2022-12-28T17:13:16.160Z,96.32
2022-12-28T17:15:43.088Z,96.42
2022-12-28T17:18:10.000Z,97.14
2022-12-28T17:20:37.834Z,97.48
2022-12-28T17:23:05.344Z,95.67
2022-12-28T17:25:33.414Z,97.12
2022-12-28T17:27:59.984Z,99.12
2022-12-28T17:30:27.211Z,100.00
2022-12-28T17:32:54.115Z,100.00
2022-12-28T17:35:20.842Z,100.00
2022-12-28T17:37:47.175Z,100.00
2022-12-28T17:40:13.734Z,100.00
2022-12-28T17:42:40.217Z,100.00
2022-12-28T17:45:11.465Z,100.00
2022-12-28T17:47:38.449Z,100.00
2022-12-28T17:50:05.569Z,100.00
2022-12-28T17:52:31.967Z,100.00
2022-12-28T17:54:58.429Z,100.00
2022-12-28T17:57:24.813Z,100.00
2022-12-28T17:59:51.208Z,100.00
2022-12-28T18:02:17.763Z,100.00
2022-12-28T18:04:44.403Z,100.00
2022-12-28T18:07:10.843Z,100.00
2022-12-28T18:09:37.278Z,100.00
2022-12-28T18:12:04.043Z,100.00
2022-12-28T18:14:30.391Z,100.00
2022-12-28T18:17:00.213Z,100.00
2022-12-28T18:19:26.699Z,100.00
2022-12-28T18:21:53.204Z,100.00
2022-12-28T18:24:21.306Z,100.00
2022-12-28T18:26:48.191Z,100.00
2022-12-28T18:29:14.922Z,100.00
2022-12-28T18:31:41.530Z,100.00
2022-12-28T18:34:08.091Z,100.00
2022-12-28T18:36:34.511Z,100.00
2022-12-28T18:39:03.612Z,100.00
2022-12-28T18:41:34.059Z,100.00
2022-12-28T18:44:02.769Z,100.00
2022-12-28T18:46:29.579Z,100.00
2022-12-28T18:48:56.657Z,100.00
2022-12-28T18:51:23.343Z,99.78
2022-12-28T18:53:50.840Z,99.26
2022-12-28T18:56:24.266Z,99.17
2022-12-28T18:58:53.489Z,100.00
2022-12-28T19:02:04.667Z,100.00
2022-12-28T19:04:11.813Z,100.00
2022-12-28T19:06:39.037Z,100.00
2022-12-28T19:09:07.527Z,100.00
2022-12-28T19:11:34.794Z,100.00
2022-12-28T19:14:05.824Z,100.00
2022-12-28T19:16:32.863Z,100.00
2022-12-28T19:19:00.486Z,100.00
2022-12-28T19:21:36.983Z,100.00
2022-12-28T19:24:10.744Z,100.00
2022-12-28T19:26:37.217Z,100.00
2022-12-28T19:29:04.328Z,100.00
2022-12-28T19:31:31.655Z,100.00
2022-12-28T19:33:58.277Z,100.00
2022-12-28T19:36:25.112Z,100.00
2022-12-28T19:38:55.556Z,100.00
2022-12-28T19:41:22.498Z,100.00
2022-12-28T19:43:49.080Z,100.00
2022-12-28T19:46:30.721Z,100.00
2022-12-28T19:48:58.991Z,100.00
2022-12-28T19:51:30.481Z,100.00
2022-12-28T19:53:58.736Z,100.00
2022-12-28T19:56:25.332Z,100.00
2022-12-28T19:58:53.791Z,100.00
2022-12-28T20:01:25.975Z,100.00
2022-12-28T20:03:52.918Z,100.00
2022-12-28T20:06:22.208Z,100.00
2022-12-28T20:08:50.969Z,100.00
2022-12-28T20:11:18.899Z,100.00
2022-12-28T20:13:57.520Z,100.00
2022-12-28T20:16:25.401Z,100.00
2022-12-28T20:18:53.748Z,100.00
2022-12-28T20:21:22.253Z,100.00
2022-12-28T20:23:50.137Z,100.00
2022-12-28T20:26:18.617Z,100.00
2022-12-28T20:28:45.899Z,100.00
2022-12-28T20:31:14.436Z,100.00
2022-12-28T20:33:42.183Z,100.00
2022-12-28T20:36:14.655Z,100.00
2022-12-28T20:38:41.419Z,100.00
2022-12-28T20:41:10.830Z,100.00
2022-12-28T20:43:37.258Z,100.00
2022-12-28T20:46:10.752Z,100.00
2022-12-28T20:48:37.305Z,100.00
2022-12-28T20:51:03.796Z,100.00
2022-12-28T20:53:30.364Z,100.00
2022-12-28T20:56:07.481Z,100.00
2022-12-28T20:58:35.388Z,100.00
2022-12-28T21:01:07.843Z,100.00
2022-12-28T21:03:34.609Z,100.00
2022-12-28T21:06:01.061Z,100.00
2022-12-28T21:08:30.893Z,100.00
2022-12-28T21:10:57.703Z,100.00
2022-12-28T21:13:24.222Z,100.00
2022-12-28T21:15:51.018Z,100.00
2022-12-28T21:18:24.197Z,100.00
2022-12-28T21:20:55.541Z,100.00
2022-12-28T21:23:22.316Z,100.00
2022-12-28T21:25:48.801Z,100.00
2022-12-28T21:28:15.362Z,100.00
2022-12-28T21:30:42.052Z,100.00
2022-12-28T21:33:08.516Z,100.00
2022-12-28T21:35:37.671Z,100.00
2022-12-28T21:38:05.262Z,100.00
2022-12-28T21:40:31.799Z,100.00
2022-12-28T21:43:01.810Z,100.00
2022-12-28T21:45:28.342Z,100.00
2022-12-28T21:47:55.012Z,100.00
2022-12-28T21:50:21.435Z,100.00
2022-12-28T21:52:47.962Z,100.00
2022-12-28T21:55:34.714Z,100.00
2022-12-28T21:58:01.301Z,100.00
2022-12-28T22:04:02.640Z,100.00
2022-12-28T22:06:29.377Z,100.00
2022-12-28T22:09:15.789Z,100.00
2022-12-28T22:12:00.665Z,100.00
2022-12-28T22:14:27.245Z,100.00
2022-12-28T22:16:53.848Z,100.00
2022-12-28T22:19:22.416Z,100.00
2022-12-28T22:21:49.023Z,100.00
2022-12-28T22:24:15.732Z,100.00
2022-12-28T22:26:42.241Z,100.00
2022-12-28T22:29:08.727Z,100.00
2022-12-28T22:31:37.908Z,100.00
2022-12-28T22:34:07.337Z,100.00
2022-12-28T22:36:34.345Z,100.00
2022-12-28T22:39:00.741Z,100.00
2022-12-28T22:41:27.172Z,100.00
2022-12-28T22:43:54.655Z,100.00
2022-12-28T22:46:21.958Z,100.00
2022-12-28T22:48:49.240Z,100.00
2022-12-28T22:51:18.075Z,100.00
2022-12-28T22:53:44.831Z,100.00
2022-12-28T22:56:12.961Z,100.00
2022-12-28T22:58:39.339Z,100.00
2022-12-28T23:01:17.111Z,100.00
2022-12-28T23:03:45.599Z,100.00
2022-12-28T23:06:14.674Z,100.00
2022-12-28T23:08:41.253Z,100.00
2022-12-28T23:11:30.617Z,100.00
2022-12-28T23:14:21.289Z,100.00
2022-12-28T23:16:48.570Z,100.00
2022-12-28T23:19:34.176Z,100.00
2022-12-28T23:22:20.125Z,100.00
2022-12-28T23:25:05.000Z,100.00
2022-12-28T23:27:35.491Z,100.00
2022-12-28T23:30:02.213Z,100.00
2022-12-28T23:32:28.607Z,100.00
2022-12-28T23:34:55.035Z,100.00
2022-12-28T23:37:21.462Z,100.00
2022-12-28T23:39:47.895Z,100.00
2022-12-28T23:42:14.420Z,100.00
2022-12-28T23:44:40.926Z,100.00
2022-12-28T23:47:07.400Z,100.00
2022-12-28T23:49:33.839Z,100.00
2022-12-28T23:52:00.284Z,100.00
2022-12-28T23:54:26.946Z,100.00
2022-12-28T23:56:53.336Z,100.00
2022-12-28T23:59:22.008Z,100.00
